Latest Weather Observations for Urandangi

IDQ60801

Issued at 8:32 am EST Tuesday 22 January 2019 (issued every 10 minutes, with the page automatically refreshed every 10 minutes)

About weather observations | Map of weather stations | Latest weather observations for QLD | Other Formats
Station Details ID: 037058 Name: URANDANGI AERODROME Lat: -21.60 Lon: 138.37 Height: 178.6 m
Data from the previous 72 hours. | See also: Recent months at Urandangi
Date/Time
EST
Temp
°C
App
Temp
°C
Dew
Point
°C
Rel
Hum
%
Delta-T
°C
Wind Press
QNH
hPa
Press
MSL
hPa
Rain since
9am
mm
Dir  Spd
km/h
Gust
km/h
Spd
kts
Gust
kts
22/08:30am 34.4 31.7 7.5 19 15.1 NNE 11 17 6 9 1010.2 1008.8 0.0
22/08:00am 33.4 30.5 6.6 19 14.7 NNE 11 17 6 9 1010.1 1008.7 0.0
22/07:30am 31.4 28.5 6.5 21 13.5 N 11 15 6 8 1009.8 1008.4 0.0
22/07:00am 30.4 26.9 7.0 23 12.7 NNE 15 22 8 12 1009.5 1008.1 0.0
22/06:30am 29.4 26.2 6.7 24 12.2 ENE 13 17 7 9 1009.1 1007.7 0.0
22/06:00am 29.4 26.2 6.7 24 12.2 ENE 13 17 7 9 1009.0 1007.6 0.0
22/05:30am 27.7 24.2 5.3 24 11.6 ENE 13 13 7 7 1008.9 1007.5 0.0
22/05:00am 26.2 23.3 4.6 25 11.0 ENE 9 11 5 6 1008.8 1007.4 0.0
22/04:30am 25.9 23.5 4.4 25 10.9 E 6 6 3 3 1008.6 1007.2 0.0
22/04:00am 26.9 24.7 5.2 25 11.2 E 6 7 3 4 1008.6 1007.2 0.0
22/03:30am 27.2 24.7 4.9 24 11.5 ENE 7 7 4 4 1008.5 1007.1 0.0
22/03:00am 28.6 25.5 5.5 23 12.1 ENE 11 11 6 6 1008.3 1006.9 0.0
22/02:30am 30.2 27.1 5.5 21 13.1 ENE 11 13 6 7 1008.2 1006.8 0.0
22/02:00am 31.1 27.8 6.2 21 13.4 E 13 17 7 9 1008.2 1006.8 0.0
22/01:30am 28.6 25.3 4.8 22 12.3 E 11 13 6 7 1008.3 1006.9 0.0
22/01:00am 30.8 27.8 6.0 21 13.3 ENE 11 11 6 6 1008.4 1007.0 0.0
22/12:30am 31.6 28.6 5.9 20 13.8 ENE 11 13 6 7 1008.5 1007.1 0.0
22/12:00am 32.3 29.6 5.7 19 14.3 ENE 9 11 5 6 1008.6 1007.2 0.0
 
Date/Time
EST
Temp
°C
App
Temp
°C
Dew
Point
°C
Rel
Hum
%
Delta-T
°C
Wind Press
QNH
hPa
Press
MSL
hPa
Rain since
9am
mm
Dir  Spd
km/h
Gust
km/h
Spd
kts
Gust
kts
21/11:30pm 33.5 30.5 5.9 18 15.0 ENE 11 15 6 8 1008.7 1007.3 0.0
21/11:00pm 34.6 31.2 6.0 17 15.7 ENE 13 15 7 8 1008.6 1007.2 0.0
21/10:30pm 35.6 32.2 5.9 16 16.3 ENE 13 17 7 9 1008.5 1007.1 0.0
21/10:00pm 35.7 32.3 6.0 16 16.4 E 13 15 7 8 1008.1 1006.7 0.0
21/09:30pm 36.2 33.3 6.4 16 16.5 E 11 15 6 8 1007.8 1006.4 0.0
21/09:00pm 37.4 34.1 6.4 15 17.3 E 13 17 7 9 1007.5 1006.1 0.0
21/08:30pm 37.9 34.5 5.8 14 17.8 E 13 17 7 9 1007.1 1005.7 0.0
21/08:00pm 39.0 34.8 5.6 13 18.6 E 17 24 9 13 1006.8 1005.4 0.0
21/07:30pm 39.8 34.7 6.2 13 18.9 E 22 32 12 17 1006.5 1005.1 0.0
21/07:00pm 40.8 35.9 7.0 13 19.4 E 22 32 12 17 1006.0 1004.7 0.0
21/06:30pm 41.2 38.2 9.4 15 18.8 E 15 26 8 14 1005.7 1004.4 0.0
21/06:00pm 41.6 38.3 9.7 15 19.1 E 17 30 9 16 1005.5 1004.1 0.0
21/05:30pm 41.3 39.1 9.5 15 18.9 E 11 26 6 14 1005.4 1004.0 0.0
21/05:00pm 41.5 39.0 9.6 15 19.0 E 13 24 7 13 1005.7 1004.4 0.0
21/04:30pm 42.1 40.1 10.1 15 19.2 NE 11 32 6 17 1005.8 1004.5 0.0
21/04:00pm 41.1 38.5 12.1 18 17.9 NNE 17 32 9 17 1006.2 1004.8 0.0
21/03:30pm 40.9 38.3 11.9 18 17.8 E 17 35 9 19 1006.5 1005.1 0.0
21/03:00pm 41.0 39.5 12.0 18 17.8 NE 11 26 6 14 1006.9 1005.5 0.0
21/02:30pm 41.0 39.5 12.0 18 17.8 NNE 11 20 6 11 1007.2 1005.8 0.0
21/02:00pm 41.3 38.5 11.3 17 18.3 NE 17 26 9 14 1007.7 1006.3 0.0
21/01:30pm 39.7 38.1 10.1 17 17.6 NNE 9 28 5 15 1007.9 1006.5 0.0
21/01:00pm 40.4 37.3 8.8 15 18.5 ENE 15 26 8 14 1008.2 1006.8 0.0
21/12:30pm 39.5 39.0 10.8 18 17.2 SE 4 11 2 6 1008.6 1007.2 0.0
21/12:00pm 39.3 35.8 8.9 16 17.8 NNE 17 28 9 15 1008.9 1007.5 0.0
21/11:30am 38.8 37.4 9.4 17 17.2 E 7 17 4 9 1009.2 1007.8 0.0
21/11:00am 38.0 36.7 11.1 20 16.1 NNW 9 19 5 10 1009.6 1008.2 0.0
21/10:30am 37.5 37.4 12.2 22 15.4 ENE 4 11 2 6 1009.8 1008.4 0.0
21/10:00am 36.0 36.2 14.1 27 13.6 NE 6 13 3 7 1009.9 1008.5 0.0
21/09:30am 34.5 35.9 15.4 32 12.0 NNW 2 9 1 5 1009.8 1008.4 0.0
21/09:00am 33.5 34.8 17.2 37 10.5 SW 6 9 3 5 1009.8 1008.4 0.0
21/08:30am 32.6 35.1 19.1 44 8.9 W 4 6 2 3 1009.7 1008.3 0.0
21/08:00am 31.2 34.0 18.9 48 8.1 WNW 2 6 1 3 1009.7 1008.3 0.0
21/07:30am 29.2 30.4 13.8 39 9.3 CALM 0 2 0 1 1009.4 1008.0 0.0
21/07:00am 25.9 25.0 6.0 28 10.4 CALM 0 0 0 0 1009.2 1007.8 0.0
21/06:30am 24.0 22.7 3.9 27 10.0 CALM 0 0 0 0 1008.9 1007.5 0.0
21/06:00am 24.2 23.2 5.5 30 9.6 CALM 0 0 0 0 1008.7 1007.3 0.0
21/05:30am 24.5 23.7 6.7 32 9.3 CALM 0 0 0 0 1008.5 1007.1 0.0
21/05:00am 26.3 26.5 10.5 37 8.9 CALM 0 0 0 0 1008.3 1006.9 0.0
21/04:30am 26.9 25.5 7.4 29 10.5 N 4 7 2 4 1008.1 1006.7 0.0
21/04:00am 27.6 26.0 8.0 29 10.7 N 6 7 3 4 1008.0 1006.6 0.0
21/03:30am 28.6 25.6 4.2 21 12.5 N 9 13 5 7 1008.1 1006.7 0.0
21/03:00am 29.4 26.1 2.6 18 13.5 NE 9 13 5 7 1008.3 1006.9 0.0
21/02:30am 31.6 27.2 2.7 16 14.7 N 15 30 8 16 1008.4 1007.0 0.0
21/02:00am 27.5 24.7 1.8 19 12.6 E 6 7 3 4 1008.4 1007.0 0.0
21/01:30am 28.0 25.2 2.2 19 12.7 ESE 6 7 3 4 1008.6 1007.2 0.0
21/01:00am 29.2 26.3 2.5 18 13.4 ESE 7 7 4 4 1008.8 1007.4 0.0
21/12:30am 30.5 27.6 2.7 17 14.1 ESE 7 9 4 5 1009.1 1007.7 0.0
21/12:00am 32.2 29.0 3.2 16 15.0 ESE 9 13 5 7 1009.2 1007.8 0.0
 
Date/Time
EST
Temp
°C
App
Temp
°C
Dew
Point
°C
Rel
Hum
%
Delta-T
°C
Wind Press
QNH
hPa
Press
MSL
hPa
Rain since
9am
mm
Dir  Spd
km/h
Gust
km/h
Spd
kts
Gust
kts
20/11:30pm 33.4 29.9 3.3 15 15.6 ESE 11 15 6 8 1009.3 1007.9 0.0
20/11:00pm 34.2 30.2 2.9 14 16.3 ESE 13 17 7 9 1009.2 1007.8 0.0
20/10:30pm 35.0 30.9 2.5 13 16.8 ESE 13 17 7 9 1009.0 1007.6 0.0
20/10:00pm 35.8 31.3 2.0 12 17.5 ESE 15 20 8 11 1008.7 1007.3 0.0
20/09:30pm 36.6 32.0 1.4 11 18.1 ESE 15 22 8 12 1008.5 1007.1 0.0
20/09:00pm 37.5 32.4 0.7 10 18.8 ESE 17 22 9 12 1008.2 1006.8 0.0
20/08:30pm 38.1 33.1 1.2 10 19.1 ESE 17 20 9 11 1007.8 1006.4 0.0
20/08:00pm 39.5 33.7 2.2 10 19.8 ESE 22 32 12 17 1007.2 1005.8 0.0
20/07:30pm 40.3 33.4 2.8 10 20.1 ESE 28 39 15 21 1006.6 1005.2 0.0
20/07:00pm 41.1 33.3 2.0 9 20.8 ESE 32 46 17 25 1005.9 1004.6 0.0
20/06:54pm 41.3 34.3 2.1 9 20.9 ESE 28 46 15 25 1005.8 1004.5 0.0
20/06:30pm 41.8 34.5 2.5 9 21.1 ESE 30 41 16 22 1005.5 1004.1 0.0
20/06:00pm 42.5 35.3 3.0 9 21.5 ESE 30 44 16 24 1005.4 1004.0 0.0
20/05:48pm 42.5 35.3 3.0 9 21.5 ESE 30 48 16 26 1005.4 1004.0 0.0
20/05:30pm 42.7 34.9 3.1 9 21.6 E 33 48 18 26 1005.5 1004.1 0.0
20/05:17pm 42.9 35.4 3.3 9 21.7 ESE 32 50 17 27 1005.3 1003.9 0.0
20/05:00pm 43.1 35.6 3.4 9 21.8 ESE 32 44 17 24 1005.3 1003.9 0.0
20/04:50pm 43.2 35.5 3.5 9 21.8 E 33 52 18 28 1005.6 1004.2 0.0
20/04:30pm 43.5 36.0 3.7 9 22.0 ESE 32 46 17 25 1005.7 1004.4 0.0
20/04:00pm 43.4 33.9 2.0 8 22.3 ESE 41 61 22 33 1005.9 1004.6 0.0
20/03:54pm 44.0 35.7 2.4 8 22.6 ESE 35 61 19 33 1005.8 1004.5 0.0
20/03:52pm 43.6 35.7 2.1 8 22.4 E 33 61 18 33 1005.6 1004.2 0.0
20/03:30pm 44.0 36.6 4.1 9 22.2 E 32 56 17 30 1006.2 1004.8 0.0
20/03:11pm 44.1 36.8 2.5 8 22.6 ESE 30 50 16 27 1006.6 1005.2 0.0
20/03:00pm 43.2 35.7 3.5 9 21.9 ESE 32 46 17 25 1006.7 1005.3 0.0
20/02:30pm 43.8 36.4 4.0 9 22.1 ESE 32 54 17 29 1007.0 1005.6 0.0
20/02:21pm 44.6 37.1 4.5 9 22.5 ESE 33 54 18 29 1007.3 1005.9 0.0
20/02:00pm 43.8 36.1 2.3 8 22.5 E 32 44 17 24 1007.5 1006.1 0.0
20/01:37pm 43.4 35.1 2.0 8 22.3 E 35 54 19 29 1007.8 1006.4 0.0
20/01:30pm 43.3 35.0 1.9 8 22.2 E 35 54 19 29 1007.8 1006.4 0.0
20/01:29pm 43.5 35.6 2.1 8 22.3 ESE 33 48 18 26 1007.9 1006.5 0.0
20/01:16pm 43.6 36.6 2.1 8 22.4 ESE 28 46 15 25 1008.1 1006.7 0.0
20/01:00pm 43.9 36.6 2.4 8 22.6 E 30 43 16 23 1008.3 1006.9 0.0
20/12:50pm 44.0 37.1 2.4 8 22.6 E 28 46 15 25 1008.5 1007.1 0.0
20/12:30pm 43.1 36.7 3.4 9 21.8 E 26 46 14 25 1008.8 1007.4 0.0
20/12:00pm 41.5 35.9 3.7 10 20.7 E 22 35 12 19 1009.1 1007.7 0.0
20/11:30am 41.7 36.2 3.9 10 20.7 E 22 35 12 19 1009.5 1008.1 0.0
20/11:00am 39.8 34.6 3.8 11 19.6 ENE 20 33 11 18 1010.1 1008.7 0.0
20/10:30am 39.3 35.7 6.9 14 18.4 NE 15 26 8 14 1010.4 1009.0 0.0
20/10:00am 38.5 34.3 7.3 15 17.7 NE 19 30 10 16 1010.4 1009.0 0.0
20/09:30am 37.8 33.3 8.6 17 16.9 NNE 22 28 12 15 1010.4 1009.0 0.0
20/09:00am 36.9 32.4 10.2 20 15.7 NNE 24 37 13 20 1010.4 1009.0 0.0
20/08:30am 36.3 32.5 9.0 19 15.8 NE 19 24 10 13 1010.7 1009.4 0.0
20/08:00am 35.3 31.8 8.9 20 15.2 NE 17 26 9 14 1010.5 1009.1 0.0
20/07:30am 30.9 30.3 7.4 23 12.9 CALM 0 2 0 1 1010.4 1009.0 0.0
20/07:00am 27.9 27.0 6.1 25 11.5 CALM 0 0 0 0 1010.1 1008.7 0.0
20/06:30am 26.0 25.0 5.6 27 10.6 CALM 0 0 0 0 1009.6 1008.2 0.0
20/06:00am 27.9 25.4 6.6 26 11.4 N 9 11 5 6 1009.4 1008.0 0.0
20/05:30am 28.3 26.3 6.4 25 11.6 NNE 6 7 3 4 1009.1 1007.7 0.0
20/05:00am 28.9 26.7 6.3 24 12.1 E 7 7 4 4 1008.8 1007.4 0.0
20/04:30am 30.4 27.6 7.0 23 12.7 E 11 13 6 7 1008.7 1007.3 0.0
20/04:00am 31.3 28.4 6.4 21 13.5 E 11 15 6 8 1008.6 1007.2 0.0
20/03:30am 32.9 29.0 7.0 20 14.3 E 17 20 9 11 1008.6 1007.2 0.0
20/03:00am 33.1 29.4 6.4 19 14.6 E 15 19 8 10 1008.4 1007.0 0.0
20/02:30am 33.4 29.4 6.6 19 14.7 ESE 17 20 9 11 1008.1 1006.7 0.0
20/02:00am 34.0 30.3 6.3 18 15.2 ESE 15 20 8 11 1008.2 1006.8 0.0
20/01:30am 32.9 29.9 6.2 19 14.5 ESE 11 13 6 7 1008.5 1007.1 0.0
20/01:00am 33.1 30.6 6.4 19 14.6 ESE 9 13 5 7 1008.8 1007.4 0.0
20/12:30am 33.3 30.6 5.8 18 14.9 SE 9 11 5 6 1008.9 1007.5 0.0
20/12:00am 34.4 31.4 5.8 17 15.6 SE 11 15 6 8 1009.1 1007.7 0.0
 
Date/Time
EST
Temp
°C
App
Temp
°C
Dew
Point
°C
Rel
Hum
%
Delta-T
°C
Wind Press
QNH
hPa
Press
MSL
hPa
Rain since
9am
mm
Dir  Spd
km/h
Gust
km/h
Spd
kts
Gust
kts
19/11:30pm 35.0 31.5 5.4 16 16.1 SE 13 17 7 9 1009.1 1007.7 0.0
19/11:00pm 35.9 32.0 5.2 15 16.7 SE 15 20 8 11 1009.0 1007.6 0.0
19/10:30pm 36.5 32.7 5.7 15 16.9 ESE 15 20 8 11 1008.8 1007.4 0.0
19/10:00pm 36.5 32.8 4.7 14 17.2 ESE 13 17 7 9 1008.4 1007.0 0.0
19/09:30pm 37.2 33.1 4.2 13 17.8 ESE 15 19 8 10 1008.1 1006.7 0.0
19/09:00pm 38.0 33.2 2.5 11 18.7 ESE 17 22 9 12 1007.7 1006.3 0.0
19/08:30pm 39.0 33.5 1.9 10 19.5 ESE 20 28 11 15 1007.4 1006.0 0.0
19/08:00pm 39.8 34.0 2.5 10 19.9 ESE 22 28 12 15 1006.9 1005.5 0.0
19/07:30pm 40.4 34.1 1.4 9 20.5 ESE 24 32 13 17 1006.5 1005.1 0.0
19/07:00pm 41.5 34.9 2.3 9 21.0 ESE 26 43 14 23 1005.8 1004.5 0.0
19/06:30pm 42.3 35.4 2.8 9 21.4 ESE 28 37 15 20 1005.5 1004.1 0.0
19/06:00pm 42.5 35.7 3.0 9 21.5 SE 28 39 15 21 1005.3 1003.9 0.0
19/05:30pm 43.2 35.8 1.9 8 22.2 SE 30 44 16 24 1005.3 1003.9 0.0
19/05:26pm 43.3 36.3 1.9 8 22.2 SE 28 44 15 24 1005.2 1003.8 0.0
19/05:00pm 43.0 38.3 3.4 9 21.8 ESE 17 26 9 14 1005.5 1004.1 0.0
19/04:30pm 43.1 39.1 4.9 10 21.4 ESE 15 24 8 13 1005.8 1004.5 0.0
19/04:00pm 43.6 39.0 6.7 11 21.3 SSE 20 32 11 17 1006.4 1005.0 0.0
19/03:30pm 43.1 38.6 9.9 14 19.9 SE 24 35 13 19 1006.9 1005.5 0.0
19/03:00pm 43.0 38.4 9.8 14 20.0 SE 24 46 13 25 1007.2 1005.8 0.0
19/02:30pm 41.8 38.3 10.8 16 18.8 SE 20 30 11 16 1007.6 1006.2 0.0
19/02:00pm 42.2 38.4 11.1 16 19.0 ESE 22 37 12 20 1007.9 1006.5 0.0
19/01:30pm 40.9 40.4 11.9 18 17.8 ESE 6 19 3 10 1008.7 1007.3 0.0
19/01:00pm 40.7 39.0 12.6 19 17.4 ENE 13 22 7 12 1009.4 1008.0 0.0
19/12:30pm 41.3 39.5 12.2 18 17.9 E 13 26 7 14 1009.9 1008.5 0.0
19/12:00pm 39.6 39.5 13.2 21 16.4 WNW 6 11 3 6 1009.9 1008.5 0.0
19/11:30am 39.3 38.1 15.0 24 15.4 NW 15 28 8 15 1010.0 1008.6 0.0
19/11:00am 38.6 36.7 16.8 27 14.2 NW 22 30 12 16 1010.1 1008.7 0.0
19/10:30am 37.0 35.5 17.6 32 12.7 NW 22 32 12 17 1010.5 1009.1 0.0
19/10:00am 36.2 34.7 17.8 33 12.0 NW 22 30 12 16 1011.0 1009.7 0.0
19/09:30am 35.4 34.8 18.5 37 11.1 NW 19 26 10 14 1011.4 1010.1 0.0
19/09:00am 34.6 34.3 18.2 37 10.7 NW 17 28 9 15 1011.4 1010.1 0.0

Other Formats:

Comma delimited format used in spreadsheet applications
http://www.bom.gov.au/fwo/IDQ60801/IDQ60801.94344.axf

JavaScript Object Notation format (JSON) in row-major order
http://www.bom.gov.au/fwo/IDQ60801/IDQ60801.94344.json